Time;durP1;ratioP1;P1;durP2;ratioP2;P2;SDS_P1;SDS_P2;PMS_P1;PMS_P2;Temp;Humidity;BMP_temperature;BMP_pressure;BME280_temperature;BME280_humidity;BME280_pressure;Samples;Min_cycle;Max_cycle;Signal;HPM_P1;HPM_P2
2022/07/24 02:03:27;;;;;;;21.30;15.77;;;;;;;-145.18;100.00;46660.41;4578516;23;20050;-75
2022/07/24 02:05:52;;;;;;;21.70;13.43;;;;;;;-145.18;100.00;46660.41;4961828;28;20046;-75
2022/07/24 02:08:18;;;;;;;15.00;10.97;;;;;;;-145.18;100.00;46660.41;4953304;29;20066;-74
2022/07/24 02:10:43;;;;;;;20.77;12.70;;;;;;;-145.18;100.00;46660.41;4953375;29;20047;-76
2022/07/24 02:13:08;;;;;;;17.80;14.27;;;;;;;-145.18;100.00;46660.41;4953409;29;20031;-76
2022/07/24 02:15:34;;;;;;;27.50;18.17;;;;;;;-145.18;100.00;46660.41;4953585;29;20479;-76
2022/07/24 02:18:01;;;;;;;27.53;19.90;;;;;;;-145.18;100.00;46660.41;4952458;28;20031;-76
2022/07/24 02:20:27;;;;;;;31.47;17.57;;;;;;;-145.18;100.00;46660.41;4953622;29;20555;-76
2022/07/24 02:22:53;;;;;;;28.33;21.27;;;;;;;-145.18;100.00;46660.41;4952648;29;20047;-76
2022/07/24 02:25:19;;;;;;;30.20;21.37;;;;;;;-145.18;100.00;46660.41;4953801;29;20038;-76
2022/07/24 02:27:45;;;;;;;31.63;22.70;;;;;;;-145.18;100.00;46660.41;4953301;29;20035;-76
2022/07/24 02:30:14;;;;;;;32.57;21.90;;;;;;;-145.18;100.00;46660.41;4953467;29;20045;-75
2022/07/24 02:32:39;;;;;;;26.13;21.57;;;;;;;-145.18;100.00;46660.41;4952354;29;20053;-75
2022/07/24 02:35:05;;;;;;;26.70;19.90;;;;;;;-145.18;100.00;46660.41;4953869;29;20479;-75
2022/07/24 02:37:31;;;;;;;28.87;21.90;;;;;;;-145.18;100.00;46660.41;4952594;29;20054;-75
2022/07/24 02:39:57;;;;;;;30.67;23.23;;;;;;;-145.18;100.00;46660.41;4970083;28;20027;-76
2022/07/24 02:42:22;;;;;;;25.70;20.77;;;;;;;-145.18;100.00;46660.41;4971936;28;20042;-75
2022/07/24 02:44:48;;;;;;;28.13;21.53;;;;;;;-145.18;100.00;46660.41;4972127;28;20052;-76
2022/07/24 02:47:13;;;;;;;28.33;21.63;;;;;;;-145.18;100.00;46660.41;4972038;28;20063;-76
2022/07/24 02:49:38;;;;;;;30.40;23.00;;;;;;;-145.18;100.00;46660.41;4972474;28;20046;-76
2022/07/24 02:52:04;;;;;;;33.23;25.17;;;;;;;-145.18;100.00;46660.41;4972110;28;20502;-76
2022/07/24 02:54:30;;;;;;;30.47;23.90;;;;;;;-145.18;100.00;46660.41;4972150;28;20096;-76
2022/07/24 02:56:56;;;;;;;28.63;21.20;;;;;;;-145.18;100.00;46660.41;4971781;28;20042;-77
2022/07/24 02:59:22;;;;;;;34.20;22.70;;;;;;;-145.18;100.00;46660.41;4972273;28;20447;-75
2022/07/24 03:01:47;;;;;;;28.70;20.63;;;;;;;-145.18;100.00;46660.41;4977214;28;20039;-77
2022/07/24 03:04:12;;;;;;;30.47;23.10;;;;;;;-145.18;100.00;46660.41;4991492;28;20133;-76
2022/07/24 03:06:38;;;;;;;37.00;27.07;;;;;;;-145.18;100.00;46660.41;4991419;28;20399;-76
2022/07/24 03:09:03;;;;;;;39.43;24.93;;;;;;;-145.18;100.00;46656.50;4991244;28;20511;-77
2022/07/24 03:11:29;;;;;;;37.33;26.03;;;;;;;-145.18;100.00;46658.44;4991820;28;20038;-76
2022/07/24 03:13:54;;;;;;;32.27;25.60;;;;;;;-145.18;100.00;46658.44;4990966;28;20038;-76
2022/07/24 03:16:19;;;;;;;40.43;26.33;;;;;;;-145.18;100.00;46656.50;4991883;28;20048;-75
2022/07/24 03:18:45;;;;;;;41.37;28.57;;;;;;;-145.18;100.00;46660.41;4990899;28;20042;-76
2022/07/24 03:21:13;;;;;;;41.97;28.40;;;;;;;-145.18;100.00;46660.41;4991281;28;20042;-75
2022/07/24 03:23:39;;;;;;;35.70;27.27;;;;;;;-145.18;100.00;46660.41;4990724;28;20529;-76
2022/07/24 03:26:04;;;;;;;38.00;25.60;;;;;;;-145.18;100.00;46658.44;4991549;28;20117;-76
2022/07/24 03:28:30;;;;;;;38.77;25.40;;;;;;;-145.18;100.00;46660.41;4989842;28;20407;-76
2022/07/24 03:30:55;;;;;;;41.87;24.70;;;;;;;-145.18;100.00;46660.41;4991176;28;20435;-75
2022/07/24 03:33:21;;;;;;;36.00;22.57;;;;;;;-145.18;100.00;46656.50;4990807;28;20498;-76
2022/07/24 03:35:46;;;;;;;37.77;22.50;;;;;;;-145.18;100.00;46660.41;4990922;28;20034;-75
2022/07/24 03:38:12;;;;;;;38.97;22.27;;;;;;;-145.18;100.00;46660.41;4990740;28;20053;-75
2022/07/24 03:40:37;;;;;;;40.33;23.73;;;;;;;-145.18;100.00;46660.41;4990879;28;20039;-76
2022/07/24 03:43:02;;;;;;;38.67;23.17;;;;;;;-145.18;100.00;46660.41;4990418;28;20046;-76
2022/07/24 03:45:28;;;;;;;38.57;23.20;;;;;;;-145.18;100.00;46660.41;4989968;28;20039;-75
2022/07/24 03:47:53;;;;;;;39.53;24.50;;;;;;;-145.18;100.00;46660.41;4990497;28;20034;-75
2022/07/24 03:50:18;;;;;;;36.00;23.80;;;;;;;-145.18;100.00;46660.41;4991023;28;20399;-76
2022/07/24 03:52:44;;;;;;;34.37;23.60;;;;;;;-145.18;100.00;46660.41;4990547;28;20434;-75
2022/07/24 03:55:09;;;;;;;33.83;22.87;;;;;;;-145.18;100.00;46660.41;4973896;28;20041;-77
2022/07/24 03:57:34;;;;;;;33.37;23.80;;;;;;;-145.18;100.00;46660.41;4989982;28;20030;-75
2022/07/24 04:00:00;;;;;;;34.90;23.23;;;;;;;-145.18;100.00;46658.44;4991082;28;20058;-75
2022/07/24 04:02:25;;;;;;;40.63;24.23;;;;;;;-145.18;100.00;46660.41;4990181;28;20050;-75
2022/07/24 04:04:50;;;;;;;37.33;23.40;;;;;;;-145.18;100.00;46660.41;4990866;28;20538;-75
2022/07/24 04:07:16;;;;;;;41.90;24.00;;;;;;;-145.18;100.00;46660.41;4990306;28;20129;-75
2022/07/24 04:09:41;;;;;;;46.30;25.73;;;;;;;-145.18;100.00;46660.41;4990553;28;20072;-76
2022/07/24 04:12:07;;;;;;;44.47;25.33;;;;;;;-145.18;100.00;46660.41;4972999;28;20464;-76
2022/07/24 04:14:32;;;;;;;44.83;25.63;;;;;;;-145.18;100.00;46660.41;4990520;28;20045;-76
2022/07/24 04:16:58;;;;;;;35.73;22.17;;;;;;;-145.18;100.00;46660.41;4990518;28;20031;-75
2022/07/24 04:19:24;;;;;;;47.77;28.67;;;;;;;-145.18;100.00;46658.44;4990281;28;20058;-75
2022/07/24 04:21:49;;;;;;;46.10;29.77;;;;;;;-145.18;100.00;46660.41;4989525;28;20053;-76
2022/07/24 04:24:15;;;;;;;48.13;33.53;;;;;;;-145.18;100.00;46660.41;4973135;28;20045;-75
2022/07/24 04:26:41;;;;;;;51.13;32.70;;;;;;;-145.18;100.00;46658.44;4989842;28;20069;-76
2022/07/24 04:29:06;;;;;;;52.53;35.00;;;;;;;-145.18;100.00;46660.41;4990474;28;20479;-76
2022/07/24 04:31:32;;;;;;;49.67;34.00;;;;;;;-145.18;100.00;46660.41;4991004;28;20070;-76
2022/07/24 04:33:57;;;;;;;48.57;31.53;;;;;;;-145.18;100.00;46660.41;4990213;28;20030;-76
2022/07/24 04:36:23;;;;;;;48.97;30.83;;;;;;;-145.18;100.00;46660.41;4990774;28;20045;-76
2022/07/24 04:38:48;;;;;;;49.50;28.80;;;;;;;-145.18;100.00;46652.59;4990434;28;20034;-76
2022/07/24 04:41:15;;;;;;;46.23;28.30;;;;;;;-145.18;100.00;46652.59;4992226;28;20042;-75
2022/07/24 04:43:41;;;;;;;44.87;29.03;;;;;;;-145.18;100.00;46658.44;4993049;28;20180;-76
2022/07/24 04:46:06;;;;;;;47.60;32.07;;;;;;;-145.18;100.00;46658.44;4994296;28;20046;-76
2022/07/24 04:48:32;;;;;;;44.73;30.80;;;;;;;-145.18;100.00;46654.53;4973878;28;20192;-76
2022/07/24 04:50:57;;;;;;;49.47;30.83;;;;;;;-145.18;100.00;46656.50;4981591;28;20391;-76
2022/07/24 04:53:23;;;;;;;45.07;29.10;;;;;;;-145.18;100.00;46656.50;4984025;28;20076;-76
2022/07/24 04:55:48;;;;;;;48.87;31.37;;;;;;;-145.18;100.00;46654.53;4981680;28;20438;-77
2022/07/24 04:58:13;;;;;;;46.77;29.80;;;;;;;-145.18;100.00;46654.53;4990406;28;20042;-77
2022/07/24 05:00:39;;;;;;;44.80;29.60;;;;;;;-145.18;100.00;46656.50;4993187;28;20045;-77
2022/07/24 05:03:04;;;;;;;43.37;30.07;;;;;;;-145.18;100.00;46650.63;4989100;28;20058;-77
2022/07/24 05:05:30;;;;;;;43.27;28.97;;;;;;;-145.18;100.00;46656.50;4975214;28;20104;-76
2022/07/24 05:07:55;;;;;;;45.37;29.63;;;;;;;-145.18;100.00;46656.50;4984254;28;20035;-77
2022/07/24 05:10:20;;;;;;;40.83;28.17;;;;;;;-145.18;100.00;46656.50;4993011;28;20038;-77
2022/07/24 05:12:46;;;;;;;39.90;28.07;;;;;;;-145.18;100.00;46652.59;4992515;28;20035;-76
2022/07/24 05:15:11;;;;;;;36.00;27.60;;;;;;;-145.18;100.00;46654.53;4993595;28;20062;-75
2022/07/24 05:17:37;;;;;;;38.73;28.13;;;;;;;-145.18;100.00;46652.59;4993030;28;20065;-76
2022/07/24 05:20:04;;;;;;;37.57;26.80;;;;;;;-145.18;100.00;46656.50;4993946;28;20031;-77
2022/07/24 05:22:30;;;;;;;39.93;27.00;;;;;;;-145.18;100.00;46656.50;4992987;28;20092;-77
2022/07/24 05:24:55;;;;;;;41.70;26.30;;;;;;;-145.18;100.00;46654.53;4993213;28;20030;-77
2022/07/24 05:27:20;;;;;;;37.70;25.17;;;;;;;-145.18;100.00;46652.59;4994006;28;20061;-77
2022/07/24 05:29:48;;;;;;;35.90;25.70;;;;;;;-145.18;100.00;46654.53;4988821;28;20507;-77
2022/07/24 05:32:14;;;;;;;37.93;24.83;;;;;;;-145.18;100.00;46650.63;4991240;28;20078;-76
2022/07/24 05:34:39;;;;;;;35.93;23.73;;;;;;;-145.18;100.00;46658.44;4993128;28;20086;-76
2022/07/24 05:37:05;;;;;;;33.17;23.73;;;;;;;-145.18;100.00;46658.44;4993264;28;20033;-76
2022/07/24 05:39:30;;;;;;;34.83;22.97;;;;;;;-145.18;100.00;46660.41;4993049;28;20551;-77
2022/07/24 05:41:55;;;;;;;34.90;22.20;;;;;;;-145.18;100.00;46658.44;4990454;28;20042;-79
2022/07/24 05:44:21;;;;;;;27.13;20.00;;;;;;;-145.18;100.00;46660.41;4990829;28;20479;-77
2022/07/24 05:46:46;;;;;;;27.03;19.93;;;;;;;-145.18;100.00;46660.41;4993167;28;20026;-76
2022/07/24 05:49:12;;;;;;;28.43;20.13;;;;;;;-145.18;100.00;46660.41;4991910;28;20035;-77
2022/07/24 05:51:38;;;;;;;27.47;19.07;;;;;;;-145.18;100.00;46660.41;4993756;28;20038;-76
2022/07/24 05:54:03;;;;;;;22.83;19.10;;;;;;;-145.18;100.00;46660.41;4993084;28;20026;-77
2022/07/24 05:56:29;;;;;;;26.67;18.17;;;;;;;-145.18;100.00;46627.19;4960375;28;20129;-77
2022/07/24 05:58:54;;;;;;;30.97;20.33;;;;;;;-145.18;100.00;46625.22;4975891;28;20062;-78
2022/07/24 06:01:20;;;;;;;30.03;17.57;;;;;;;-145.18;100.00;46660.41;4993667;28;20085;-77
2022/07/24 06:03:45;;;;;;;24.83;17.43;;;;;;;-145.18;100.00;46623.28;4994766;28;20053;-77
2022/07/24 06:06:10;;;;;;;24.83;14.20;;;;;;;-145.18;100.00;46623.28;4990257;28;20050;-76
2022/07/24 06:08:36;;;;;;;18.47;12.83;;;;;;;-145.18;100.00;46631.09;4997999;28;20021;-76
2022/07/24 06:11:01;;;;;;;18.03;12.20;;;;;;;-145.18;100.00;46633.06;4975596;28;20035;-76
2022/07/24 06:13:27;;;;;;;13.37;10.03;;;;;;;-145.18;100.00;46633.06;4992928;28;20120;-76
2022/07/24 06:15:52;;;;;;;17.37;10.23;;;;;;;-145.18;100.00;46636.94;4992374;28;20034;-77
2022/07/24 06:18:18;;;;;;;13.67;9.67;;;;;;;-145.18;100.00;46644.78;4992377;28;20376;-77
2022/07/24 06:20:43;;;;;;;12.83;9.60;;;;;;;-145.18;100.00;46644.78;4992684;28;20029;-77
2022/07/24 06:23:08;;;;;;;10.80;8.60;;;;;;;-145.18;100.00;46646.72;4972957;28;20107;-77
2022/07/24 06:25:34;;;;;;;13.13;8.23;;;;;;;-145.18;100.00;46646.72;4973133;28;20069;-78
2022/07/24 06:27:59;;;;;;;9.07;7.13;;;;;;;-145.18;100.00;46648.69;4994887;28;20506;-77
2022/07/24 06:30:26;;;;;;;10.47;7.37;;;;;;;-145.18;100.00;46648.69;4981778;28;20399;-76
2022/07/24 06:32:54;;;;;;;11.30;6.57;;;;;;;-145.18;100.00;46656.50;4981664;28;20030;-77
2022/07/24 06:35:20;;;;;;;11.87;6.87;;;;;;;-145.18;100.00;46656.50;4982235;28;20492;-78
2022/07/24 06:37:45;;;;;;;9.63;6.27;;;;;;;-145.18;100.00;46654.53;4982886;28;20038;-77
2022/07/24 06:40:11;;;;;;;13.70;6.37;;;;;;;-145.18;100.00;46660.41;4984135;28;20034;-77
2022/07/24 06:42:37;;;;;;;8.90;6.00;;;;;;;-145.18;100.00;46662.34;4980743;28;20027;-78
2022/07/24 06:45:03;;;;;;;7.93;5.23;;;;;;;-145.18;100.00;46656.50;4981804;28;20031;-76
2022/07/24 06:47:29;;;;;;;8.43;5.87;;;;;;;-145.18;100.00;46660.41;4980540;28;20094;-76
2022/07/24 06:49:54;;;;;;;7.30;5.60;;;;;;;-145.18;100.00;46662.34;4982518;28;20027;-78
2022/07/24 06:52:20;;;;;;;14.10;6.23;;;;;;;-145.18;100.00;46664.31;4992541;28;20502;-77
2022/07/24 06:54:46;;;;;;;12.57;6.43;;;;;;;-145.18;100.00;46658.44;4991282;28;20030;-76
2022/07/24 06:57:11;;;;;;;10.80;6.33;;;;;;;-145.18;100.00;46660.41;4991492;28;20487;-76
2022/07/24 06:59:37;;;;;;;9.17;6.27;;;;;;;-145.18;100.00;46664.31;4984256;28;20128;-77
2022/07/24 07:02:02;;;;;;;7.47;5.77;;;;;;;-145.18;100.00;46664.31;4973026;28;20054;-77
2022/07/24 07:04:28;;;;;;;13.03;6.80;;;;;;;-145.18;100.00;46660.41;4971838;28;20519;-76
2022/07/24 07:06:53;;;;;;;9.60;5.93;;;;;;;-145.18;100.00;46660.41;4991755;28;20034;-79
2022/07/24 07:09:18;;;;;;;10.70;6.00;;;;;;;-145.18;100.00;46658.44;4986177;28;20112;-77
2022/07/24 07:11:44;;;;;;;9.47;5.40;;;;;;;-145.18;100.00;46656.50;4991372;28;20034;-77
2022/07/24 07:14:09;;;;;;;10.90;5.93;;;;;;;-145.18;100.00;46664.31;4988920;28;20090;-77
2022/07/24 07:16:35;;;;;;;8.50;5.57;;;;;;;-145.18;100.00;46666.25;4971022;28;20038;-77
2022/07/24 07:19:00;;;;;;;10.50;5.70;;;;;;;-145.18;100.00;46660.41;4986161;28;20031;-76
2022/07/24 07:21:25;;;;;;;10.10;5.73;;;;;;;-145.18;100.00;46664.31;4982458;28;20037;-78
2022/07/24 07:23:52;;;;;;;7.93;5.50;;;;;;;-145.18;100.00;46664.31;4982887;28;20484;-77
2022/07/24 07:26:18;;;;;;;12.83;5.73;;;;;;;-145.18;100.00;46664.31;4984455;28;20058;-77
2022/07/24 07:28:43;;;;;;;8.13;5.13;;;;;;;-145.18;100.00;46664.31;4980675;28;20105;-78
2022/07/24 07:31:08;;;;;;;7.63;5.23;;;;;;;-145.18;100.00;46668.22;4984992;28;20061;-77
2022/07/24 07:33:34;;;;;;;9.40;5.13;;;;;;;-145.18;100.00;46652.59;4991715;28;20026;-77
2022/07/24 07:35:59;;;;;;;10.37;5.30;;;;;;;-145.18;100.00;46650.63;4991173;28;20376;-79
2022/07/24 07:38:25;;;;;;;6.80;4.37;;;;;;;-145.18;100.00;46640.88;4991897;28;20038;-78
2022/07/24 07:40:50;;;;;;;8.17;4.30;;;;;;;-145.18;100.00;46582.25;4991452;28;20058;-78
2022/07/24 07:43:15;;;;;;;5.33;3.60;;;;;;;-145.18;100.00;46543.19;4991896;28;20038;-77
2022/07/24 07:45:41;;;;;;;12.73;4.23;;;;;;;-145.18;100.00;46535.38;4974990;28;20050;-78
2022/07/24 07:48:06;;;;;;;7.83;3.53;;;;;;;-145.18;100.00;46541.25;4991294;28;20038;-77
2022/07/24 07:50:31;;;;;;;9.20;3.60;;;;;;;-145.18;100.00;46537.34;4991810;28;20066;-78
2022/07/24 07:52:57;;;;;;;8.30;4.30;;;;;;;-145.18;100.00;46539.28;4957996;28;20117;-77
2022/07/24 07:55:22;;;;;;;6.90;3.97;;;;;;;-145.18;100.00;46537.34;4992265;28;20055;-79
2022/07/24 07:57:49;;;;;;;7.30;3.77;;;;;;;-145.18;100.00;46537.34;4991052;28;20038;-78
2022/07/24 08:00:15;;;;;;;7.43;3.80;;;;;;;-145.18;100.00;46539.28;4989043;28;20039;-76
2022/07/24 08:02:40;;;;;;;8.50;3.97;;;;;;;-145.18;100.00;46535.38;4962570;28;20061;-77
2022/07/24 08:05:06;;;;;;;10.67;3.57;;;;;;;-145.18;100.00;46537.34;4963272;28;20395;-76
2022/07/24 08:07:32;;;;;;;7.43;3.83;;;;;;;-145.18;100.00;46545.16;4982133;28;20049;-78
2022/07/24 08:09:58;;;;;;;9.90;3.97;;;;;;;-145.18;100.00;46533.44;4989837;28;20034;-77
2022/07/24 08:12:23;;;;;;;6.23;4.30;;;;;;;-145.18;100.00;46547.09;4987081;28;20034;-77
2022/07/24 08:14:49;;;;;;;4.83;3.20;;;;;;;-145.18;100.00;46535.38;4989905;28;20031;-77
2022/07/24 08:17:14;;;;;;;5.73;4.57;;;;;;;-145.18;100.00;46543.19;4994907;28;20038;-76
2022/07/24 08:19:40;;;;;;;7.23;4.40;;;;;;;-145.18;100.00;46537.34;4993923;28;20038;-78
2022/07/24 08:22:05;;;;;;;9.07;4.30;;;;;;;-145.18;100.00;46547.09;4994388;28;20113;-76
2022/07/24 08:24:32;;;;;;;10.70;5.00;;;;;;;-145.18;100.00;46537.34;4990817;28;20406;-77
2022/07/24 08:26:58;;;;;;;8.80;4.10;;;;;;;-145.18;100.00;46543.19;4994105;28;20035;-77
2022/07/24 08:29:24;;;;;;;6.07;4.20;;;;;;;-145.18;100.00;46545.16;4993973;28;20466;-77
2022/07/24 08:31:49;;;;;;;11.37;3.70;;;;;;;-145.18;100.00;46545.16;4993460;28;20149;-77
2022/07/24 08:34:15;;;;;;;7.67;4.23;;;;;;;-145.18;100.00;46523.66;4992587;28;20129;-74
2022/07/24 08:36:40;;;;;;;6.17;4.17;;;;;;;-145.18;100.00;46527.56;4992438;28;20123;-75
2022/07/24 08:39:05;;;;;;;7.30;3.60;;;;;;;-145.18;100.00;46531.47;4992572;28;20418;-74
2022/07/24 08:41:35;;;;;;;6.23;3.63;;;;;;;-145.18;100.00;46535.38;4992826;28;20072;-74
2022/07/24 08:44:03;;;;;;;5.43;3.97;;;;;;;-145.18;100.00;46539.28;4987541;28;20051;-75
2022/07/24 08:46:29;;;;;;;5.77;3.20;;;;;;;-145.18;100.00;46533.44;4992570;28;20022;-77
2022/07/24 08:48:55;;;;;;;5.10;3.40;;;;;;;-145.18;100.00;46552.97;4989454;28;20514;-77
2022/07/24 08:51:21;;;;;;;5.40;3.20;;;;;;;-145.18;100.00;46531.47;4985818;28;20048;-77
2022/07/24 08:53:47;;;;;;;8.30;2.77;;;;;;;-145.18;100.00;46564.69;4992893;28;20039;-77
2022/07/24 08:56:12;;;;;;;4.83;2.67;;;;;;;-145.18;100.00;46545.16;4994427;28;20530;-77
2022/07/24 08:58:40;;;;;;;2.77;2.40;;;;;;;-145.18;100.00;46564.69;4992213;28;20038;-78
2022/07/24 09:01:06;;;;;;;8.80;2.90;;;;;;;-145.18;100.00;46552.97;4992793;28;20029;-77
2022/07/24 09:03:43;;;;;;;6.93;2.97;;;;;;;-145.18;100.00;46539.28;4992807;28;20133;-78
2022/07/24 09:06:10;;;;;;;7.30;3.37;;;;;;;-145.18;100.00;46539.28;4992652;28;20034;-77
2022/07/24 09:08:37;;;;;;;4.47;3.17;;;;;;;-145.18;100.00;46582.25;4984229;28;20387;-78
2022/07/24 09:11:04;;;;;;;5.33;3.20;;;;;;;-145.18;100.00;46648.69;4983519;28;20027;-80
2022/07/24 09:14:29;;;;;;;6.10;3.80;;;;;;;-145.18;100.00;46552.97;4977500;28;20547;-76
2022/07/24 09:16:22;;;;;;;9.90;4.77;;;;;;;-145.18;100.00;46539.28;4974494;28;20041;-77
2022/07/24 09:18:48;;;;;;;9.87;4.17;;;;;;;-145.18;100.00;46547.09;4982254;28;20510;-76
2022/07/24 09:21:16;;;;;;;4.97;3.00;;;;;;;-145.18;100.00;46574.44;4985231;28;20065;-79
2022/07/24 09:23:43;;;;;;;4.88;3.28;;;;;;;-145.18;100.00;46568.59;4981190;28;20038;-77
2022/07/24 09:26:08;;;;;;;4.70;3.43;;;;;;;-145.18;100.00;46711.19;4982559;28;20109;-78
2022/07/24 09:28:51;;;;;;;4.00;3.13;;;;;;;-145.18;100.00;46779.56;4984277;28;20138;-77
2022/07/24 09:31:16;;;;;;;5.13;3.47;;;;;;;-145.18;100.00;46941.69;4972679;28;20482;-77
2022/07/24 09:33:42;;;;;;;4.20;3.03;;;;;;;-145.18;100.00;47094.06;4981642;28;20065;-81
2022/07/24 09:36:13;;;;;;;5.10;2.92;;;;;;;-145.18;100.00;47125.31;4985052;28;20038;-80
2022/07/24 09:38:45;;;;;;;4.65;2.92;;;;;;;-145.18;100.00;47103.81;4984015;28;20046;-76
2022/07/24 09:41:11;;;;;;;8.07;3.50;;;;;;;-145.18;100.00;47082.34;4982680;28;20061;-80
2022/07/24 09:43:38;;;;;;;5.22;3.17;;;;;;;-145.18;100.00;47092.09;4982874;28;20042;-79
2022/07/24 09:46:06;;;;;;;4.40;2.80;;;;;;;-145.18;100.00;47053.03;4985427;28;20053;-79
2022/07/24 09:48:34;;;;;;;5.68;3.45;;;;;;;-145.18;100.00;47041.31;4982553;28;20027;-78
2022/07/24 09:51:04;;;;;;;5.05;3.08;;;;;;;-145.18;100.00;47033.50;4980427;28;20105;-77
2022/07/24 09:53:32;;;;;;;4.00;2.70;;;;;;;-145.18;100.00;47008.09;4974001;28;20398;-80
2022/07/24 09:56:02;;;;;;;3.42;2.67;;;;;;;-145.18;100.00;47004.19;4974604;28;20403;-77
2022/07/24 09:58:30;;;;;;;7.68;2.90;;;;;;;-145.18;100.00;47002.25;4974323;28;20037;-79
2022/07/24 10:00:56;;;;;;;2.80;2.08;;;;;;;-145.18;100.00;46990.53;4974147;28;20546;-78
2022/07/24 10:03:27;;;;;;;3.38;2.30;;;;;;;-145.18;100.00;46976.84;4975810;28;20057;-80
2022/07/24 10:05:59;;;;;;;4.03;2.30;;;;;;;-145.18;100.00;46992.47;4992816;28;20113;-80
2022/07/24 10:08:25;;;;;;;3.63;2.13;;;;;;;-145.18;100.00;46978.81;4993268;28;20034;-80
2022/07/24 10:10:51;;;;;;;4.47;2.40;;;;;;;-145.18;100.00;46982.72;4994013;28;20042;-79
2022/07/24 10:13:17;;;;;;;3.58;2.25;;;;;;;-145.18;100.00;46984.66;4994032;28;20042;-81
2022/07/24 10:16:14;;;;;;;5.45;2.47;;;;;;;-145.18;100.00;46951.44;4994135;28;20027;-81
2022/07/24 10:18:48;;;;;;;3.92;2.45;;;;;;;-145.18;100.00;46965.13;4975194;28;20152;-81
2022/07/24 10:21:18;;;;;;;4.03;2.40;;;;;;;-145.18;100.00;46965.13;4965683;28;20062;-80
2022/07/24 10:24:07;;;;;;;5.75;2.13;;;;;;;-145.18;100.00;46986.63;4991347;28;20033;-81
2022/07/24 10:26:36;;;;;;;4.22;2.25;;;;;;;-145.18;100.00;46965.13;4989489;28;20056;-81
2022/07/24 10:29:10;;;;;;;3.10;2.33;;;;;;;-145.18;100.00;46957.31;4988589;28;20442;-80
2022/07/24 10:31:43;;;;;;;6.05;2.20;;;;;;;-145.18;100.00;46937.78;4981288;28;20026;-81
2022/07/24 10:34:23;;;;;;;2.63;2.10;;;;;;;-145.18;100.00;46963.19;4973113;28;20496;-82
2022/07/24 10:37:02;;;;;;;2.85;2.45;;;;;;;-145.18;100.00;46967.09;4972290;28;20034;-81
2022/07/24 10:39:38;;;;;;;3.00;2.55;;;;;;;-145.18;100.00;46961.22;4972754;28;20026;-80
2022/07/24 10:42:06;;;;;;;5.50;2.58;;;;;;;-145.18;100.00;46949.50;4992450;28;20030;-80
2022/07/24 10:44:32;;;;;;;2.42;2.10;;;;;;;-145.18;100.00;46945.59;4992605;28;20042;-81
2022/07/24 10:47:08;;;;;;;3.85;2.20;;;;;;;-145.18;100.00;46947.53;4991883;28;20026;-81
2022/07/24 10:49:40;;;;;;;5.45;2.00;;;;;;;-145.18;100.00;46961.22;4991947;28;20499;-80
2022/07/24 10:52:06;;;;;;;3.80;2.40;;;;;;;-145.18;100.00;46939.72;4992365;28;20040;-81
2022/07/24 10:54:31;;;;;;;4.45;2.10;;;;;;;-145.18;100.00;46931.91;4991848;28;20104;-80
2022/07/24 10:56:56;;;;;;;4.38;2.33;;;;;;;-145.18;100.00;46929.97;4991841;28;20035;-81
2022/07/24 10:59:37;;;;;;;4.57;2.10;;;;;;;-145.18;100.00;46929.97;4991824;28;20030;-80
2022/07/24 11:02:26;;;;;;;4.72;2.35;;;;;;;-145.18;100.00;46928.00;4992040;28;20065;-79
2022/07/24 11:05:27;;;;;;;3.33;2.50;;;;;;;-145.18;100.00;46941.69;4991948;28;20042;-79
2022/07/24 11:08:20;;;;;;;3.83;2.92;;;;;;;-145.18;100.00;46943.63;4992628;28;20107;-81
2022/07/24 11:10:47;;;;;;;7.35;2.55;;;;;;;-145.18;100.00;46935.81;4991862;28;20038;-82
2022/07/24 11:13:31;;;;;;;4.25;2.53;;;;;;;-145.18;100.00;46910.44;4992833;28;20033;-81
2022/07/24 11:16:15;;;;;;;3.88;2.47;;;;;;;-145.18;100.00;46914.34;4992628;28;20034;-80
2022/07/24 11:18:52;;;;;;;4.95;2.63;;;;;;;-145.18;100.00;46922.16;4991821;28;20030;-81
2022/07/24 11:21:30;;;;;;;5.55;2.22;;;;;;;-145.18;100.00;46910.44;4991761;28;20096;-82
2022/07/24 11:24:15;;;;;;;3.65;2.33;;;;;;;-145.18;100.00;46912.38;4992245;28;20401;-79
2022/07/24 11:26:46;;;;;;;3.22;2.15;;;;;;;-145.18;100.00;46914.34;4991761;28;20034;-80
2022/07/24 11:29:14;;;;;;;3.28;2.10;;;;;;;-145.18;100.00;46906.53;4991538;28;20501;-80
2022/07/24 11:31:40;;;;;;;8.02;2.70;;;;;;;-145.18;100.00;46904.56;4991448;28;20034;-79
2022/07/24 11:34:08;;;;;;;3.22;2.42;;;;;;;-145.18;100.00;46904.56;4991265;28;20034;-81
2022/07/24 11:36:35;;;;;;;3.40;2.17;;;;;;;-145.18;100.00;46912.38;4986367;28;20494;-81
2022/07/24 11:39:03;;;;;;;7.50;2.17;;;;;;;-145.18;100.00;46904.56;4990630;28;20506;-79
2022/07/24 11:41:28;;;;;;;5.40;2.17;;;;;;;-145.18;100.00;46896.75;4988000;28;20084;-82
2022/07/24 11:43:54;;;;;;;4.70;2.00;;;;;;;-145.18;100.00;46912.38;4991238;28;20121;-82
2022/07/24 11:46:39;;;;;;;4.20;2.33;;;;;;;-145.18;100.00;46900.66;4992155;28;20105;-82
2022/07/24 11:49:09;;;;;;;5.78;2.05;;;;;;;-145.18;100.00;46885.03;4991375;28;20178;-81
2022/07/24 11:51:46;;;;;;;5.03;2.08;;;;;;;-145.18;100.00;46894.81;4993941;28;20089;-83
2022/07/24 11:54:13;;;;;;;4.60;2.40;;;;;;;-145.18;100.00;46879.19;4994580;28;20479;-81
2022/07/24 11:56:40;;;;;;;3.95;1.60;;;;;;;-145.18;100.00;46865.50;4994820;28;20026;-81
2022/07/24 11:59:05;;;;;;;5.20;1.90;;;;;;;-145.18;100.00;46863.53;4994786;28;20035;-81
2022/07/24 12:01:31;;;;;;;3.25;2.08;;;;;;;-145.18;100.00;46871.38;4995244;28;20399;-79
2022/07/24 12:03:58;;;;;;;3.72;2.00;;;;;;;-145.18;100.00;46875.28;4991169;28;20166;-81
2022/07/24 12:06:23;;;;;;;7.88;2.78;;;;;;;-145.18;100.00;46863.53;4978939;28;20041;-80
2022/07/24 12:08:49;;;;;;;3.95;2.05;;;;;;;-145.18;100.00;46865.50;4977549;28;20050;-81
2022/07/24 12:11:21;;;;;;;2.78;1.83;;;;;;;-145.18;100.00;46867.44;4976092;28;20034;-80
2022/07/24 12:13:47;;;;;;;3.60;1.90;;;;;;;-145.18;100.00;46867.44;4981672;28;20034;-84
2022/07/24 12:16:33;;;;;;;3.22;2.00;;;;;;;-145.18;100.00;46842.06;4994605;28;20044;-82
2022/07/24 12:19:19;;;;;;;4.38;2.42;;;;;;;-145.18;100.00;46859.63;4989176;28;20057;-81
2022/07/24 12:21:47;;;;;;;5.50;2.20;;;;;;;-145.18;100.00;46879.19;4994048;28;20045;-80
2022/07/24 12:24:12;;;;;;;3.47;2.30;;;;;;;-145.18;100.00;46881.13;4993786;28;20027;-81
2022/07/24 12:26:52;;;;;;;5.78;2.22;;;;;;;-145.18;100.00;46873.31;4993545;28;20198;-81
2022/07/24 12:29:18;;;;;;;7.38;2.55;;;;;;;-145.18;100.00;46871.38;4992896;28;20030;-79
2022/07/24 12:31:44;;;;;;;5.82;2.00;;;;;;;-145.18;100.00;46863.53;4993017;28;20046;-80
2022/07/24 12:34:09;;;;;;;2.78;2.10;;;;;;;-145.18;100.00;46867.44;4974351;28;20038;-80
2022/07/24 12:36:36;;;;;;;7.80;2.03;;;;;;;-145.18;100.00;46861.59;4994118;28;20057;-80
2022/07/24 12:39:04;;;;;;;3.70;2.10;;;;;;;-145.18;100.00;46871.38;4988994;28;20430;-79
2022/07/24 12:41:30;;;;;;;2.58;1.63;;;;;;;-145.18;98.55;46863.53;4982966;28;20407;-80
2022/07/24 12:43:57;;;;;;;4.43;2.00;;;;;;;-145.18;100.00;46863.53;4991920;28;20086;-79
2022/07/24 12:46:37;;;;;;;3.10;1.80;;;;;;;-145.18;100.00;46867.44;4992443;28;20108;-79
2022/07/24 12:49:09;;;;;;;2.55;2.00;;;;;;;-145.18;100.00;46853.78;4993466;28;20620;-79
2022/07/24 12:51:44;;;;;;;3.15;1.85;;;;;;;-145.18;100.00;46879.19;4993475;28;20030;-79
2022/07/24 12:54:15;;;;;;;3.80;2.05;;;;;;;-145.18;100.00;46865.50;4984264;28;20034;-80
2022/07/24 12:56:41;;;;;;;3.58;1.70;;;;;;;-145.18;99.72;46863.53;4993276;28;20022;-80
2022/07/24 12:59:07;;;;;;;3.58;2.10;;;;;;;-145.18;100.00;46859.63;4991088;28;20030;-80
2022/07/24 13:01:49;;;;;;;3.08;1.80;;;;;;;-145.18;97.49;46853.78;4992103;28;20030;-80
2022/07/24 13:04:20;;;;;;;4.93;1.98;;;;;;;-145.18;96.59;46853.78;4992252;28;20053;-80
2022/07/24 13:06:47;;;;;;;2.78;1.85;;;;;;;-145.18;96.63;46842.06;4975657;28;20080;-80